createdAt,value
2022-09-04T00:00:10.409Z,0.65
2022-09-04T00:03:20.170Z,0.60
2022-09-04T00:05:57.307Z,0.60
2022-09-04T00:08:33.316Z,1.15
2022-09-04T00:11:16.046Z,0.80
2022-09-04T00:13:57.678Z,0.77
2022-09-04T00:16:55.008Z,0.80
2022-09-04T00:19:44.437Z,1.13
2022-09-04T00:22:31.622Z,0.98
2022-09-04T00:25:21.254Z,0.60
2022-09-04T00:27:55.931Z,0.60
2022-09-04T00:30:23.189Z,1.05
2022-09-04T00:33:15.936Z,0.85
2022-09-04T00:35:52.086Z,1.73
2022-09-04T00:38:30.889Z,1.00
2022-09-04T00:41:12.593Z,0.68
2022-09-04T00:44:26.233Z,0.63
2022-09-04T00:47:20.661Z,0.95
2022-09-04T00:50:17.224Z,0.70
2022-09-04T00:52:59.497Z,0.57
2022-09-04T00:55:46.738Z,0.60
2022-09-04T00:58:13.474Z,1.15
2022-09-04T01:00:40.915Z,0.80
2022-09-04T01:03:07.714Z,1.00
2022-09-04T01:05:46.101Z,0.60
2022-09-04T01:08:39.895Z,1.00
2022-09-04T01:11:41.417Z,1.00
2022-09-04T01:14:41.505Z,0.90
2022-09-04T01:17:37.319Z,0.98
2022-09-04T01:20:28.585Z,0.82
2022-09-04T01:23:12.741Z,1.00
2022-09-04T01:26:11.409Z,0.82
2022-09-04T01:28:59.125Z,0.88
2022-09-04T01:31:53.419Z,0.85
2022-09-04T01:34:34.168Z,1.55
2022-09-04T01:37:16.138Z,0.88
2022-09-04T01:39:51.065Z,0.77
2022-09-04T01:42:23.804Z,1.13
2022-09-04T01:44:50.610Z,0.80
2022-09-04T01:47:30.528Z,1.10
2022-09-04T01:50:23.725Z,1.52
2022-09-04T01:53:40.809Z,0.82
2022-09-04T01:56:20.850Z,1.05
2022-09-04T01:58:56.885Z,0.88
2022-09-04T02:01:48.821Z,1.08
2022-09-04T02:04:54.747Z,1.05
2022-09-04T02:08:18.570Z,0.98
2022-09-04T02:11:16.888Z,1.08
2022-09-04T02:13:51.546Z,0.90
2022-09-04T02:16:45.397Z,1.00
2022-09-04T02:19:50.428Z,2.67
2022-09-04T02:22:47.914Z,1.08
2022-09-04T02:25:33.274Z,1.08
2022-09-04T02:28:31.297Z,1.20
2022-09-04T02:31:49.438Z,1.27
2022-09-04T02:34:28.830Z,1.10
2022-09-04T02:37:29.066Z,1.50
2022-09-04T02:40:43.247Z,1.33
2022-09-04T02:43:28.253Z,1.23
2022-09-04T02:46:28.854Z,1.15
2022-09-04T02:49:14.271Z,1.10
2022-09-04T02:52:33.583Z,1.02
2022-09-04T02:55:29.174Z,0.85
2022-09-04T02:58:20.105Z,1.20
2022-09-04T03:00:46.829Z,0.75
2022-09-04T03:03:21.626Z,2.25
2022-09-04T03:06:14.658Z,1.35
2022-09-04T03:08:54.372Z,1.08
2022-09-04T03:11:32.160Z,1.10
2022-09-04T03:14:18.037Z,1.15
2022-09-04T03:16:57.305Z,2.30
2022-09-04T03:19:42.636Z,1.10
2022-09-04T03:22:30.409Z,1.33
2022-09-04T03:25:36.873Z,1.02
2022-09-04T03:28:04.241Z,1.05
2022-09-04T03:30:35.103Z,1.33
2022-09-04T03:33:43.908Z,1.20
2022-09-04T03:36:22.406Z,1.25
2022-09-04T03:39:29.341Z,1.10
2022-09-04T03:42:24.241Z,1.15
2022-09-04T03:45:12.530Z,1.27
2022-09-04T03:48:20.050Z,1.45
2022-09-04T03:51:01.666Z,1.83
2022-09-04T03:53:44.742Z,1.50
2022-09-04T03:56:44.833Z,1.75
2022-09-04T03:59:25.426Z,1.65
2022-09-04T04:02:23.926Z,1.10
2022-09-04T04:05:03.741Z,1.30
2022-09-04T04:08:30.726Z,1.00
2022-09-04T04:11:53.594Z,0.98
2022-09-04T04:14:53.668Z,1.77
2022-09-04T04:18:02.285Z,1.27
2022-09-04T04:20:44.640Z,1.33
2022-09-04T04:23:36.382Z,1.30
2022-09-04T04:26:11.523Z,1.33
2022-09-04T04:29:04.254Z,1.02
2022-09-04T04:32:10.929Z,0.93
2022-09-04T04:35:13.261Z,0.77
2022-09-04T04:37:51.926Z,1.15
2022-09-04T04:40:28.238Z,1.33
2022-09-04T04:43:24.942Z,1.20
2022-09-04T04:46:16.144Z,1.13
2022-09-04T04:48:57.943Z,1.30
2022-09-04T04:52:10.530Z,1.40
2022-09-04T04:55:21.538Z,0.88
2022-09-04T04:58:34.486Z,1.45
2022-09-04T05:01:43.310Z,1.17
2022-09-04T05:04:30.112Z,1.08
2022-09-04T05:07:17.953Z,0.88
2022-09-04T05:10:19.022Z,1.45
2022-09-04T05:13:00.455Z,1.25
2022-09-04T05:15:52.904Z,1.20
2022-09-04T05:18:42.378Z,1.15
2022-09-04T05:21:25.387Z,1.20
2022-09-04T05:24:15.054Z,1.00
2022-09-04T05:26:46.479Z,1.40
2022-09-04T05:29:17.686Z,1.10
2022-09-04T05:32:05.561Z,1.33
2022-09-04T05:34:51.787Z,1.15
2022-09-04T05:38:02.949Z,1.17
2022-09-04T05:40:46.963Z,1.63
2022-09-04T05:43:49.366Z,1.30
2022-09-04T05:46:31.252Z,1.08
2022-09-04T05:49:24.321Z,1.42
2022-09-04T05:52:23.302Z,0.90
2022-09-04T05:55:17.469Z,1.50
2022-09-04T05:58:05.505Z,1.50
2022-09-04T06:00:47.026Z,1.63
2022-09-04T06:03:47.706Z,1.27
2022-09-04T06:06:42.724Z,0.95
2022-09-04T06:09:28.973Z,1.80
2022-09-04T06:12:34.687Z,2.78
2022-09-04T06:15:41.882Z,1.83
2022-09-04T06:18:51.999Z,1.48
2022-09-04T06:21:58.934Z,1.30
2022-09-04T06:25:17.618Z,1.10
2022-09-04T06:28:41.724Z,1.05
2022-09-04T06:31:20.742Z,1.30
2022-09-04T06:34:04.385Z,0.73
2022-09-04T06:36:49.350Z,1.30
2022-09-04T06:39:25.134Z,1.30
2022-09-04T06:42:13.252Z,1.10
2022-09-04T06:45:22.910Z,1.30
2022-09-04T06:48:11.101Z,1.55
2022-09-04T06:50:57.091Z,0.98
2022-09-04T06:53:43.451Z,1.00
2022-09-04T06:56:43.006Z,1.23
2022-09-04T06:59:56.697Z,1.50
2022-09-04T07:02:32.504Z,1.20
2022-09-04T07:05:43.488Z,1.40
2022-09-04T07:08:58.396Z,1.48
2022-09-04T07:11:46.998Z,1.55
2022-09-04T07:14:41.874Z,1.40
2022-09-04T07:17:40.406Z,1.52
2022-09-04T07:20:53.586Z,1.77
2022-09-04T07:23:51.170Z,1.53
2022-09-04T07:26:42.061Z,1.50
2022-09-04T07:29:31.861Z,1.48
2022-09-04T07:32:18.913Z,1.45
2022-09-04T07:35:08.100Z,1.77
2022-09-04T07:38:02.981Z,1.08
2022-09-04T07:41:10.665Z,1.45
2022-09-04T07:43:53.987Z,1.52
2022-09-04T07:46:47.195Z,1.60
2022-09-04T07:49:23.981Z,1.50
2022-09-04T07:52:00.299Z,1.63
2022-09-04T07:54:38.254Z,1.55
2022-09-04T07:57:42.638Z,1.92
2022-09-04T08:00:22.931Z,1.23
2022-09-04T08:03:18.067Z,1.63
2022-09-04T08:06:15.056Z,1.67
2022-09-04T08:09:23.158Z,1.70
2022-09-04T08:12:35.552Z,1.65
2022-09-04T08:15:40.898Z,1.83
2022-09-04T08:18:34.428Z,1.35
2022-09-04T08:21:18.116Z,1.35
2022-09-04T08:24:34.075Z,2.17
2022-09-04T08:27:44.528Z,1.48
2022-09-04T08:30:15.807Z,1.35
2022-09-04T08:33:41.062Z,1.80
2022-09-04T08:36:30.278Z,1.63
2022-09-04T08:39:27.560Z,1.30
2022-09-04T08:42:12.909Z,1.10
2022-09-04T08:45:22.461Z,1.90
2022-09-04T08:48:11.218Z,1.02
2022-09-04T08:51:10.481Z,0.95
2022-09-04T08:54:02.607Z,1.30
2022-09-04T08:56:47.670Z,1.13
2022-09-04T09:00:10.789Z,1.23
2022-09-04T09:02:49.646Z,1.35
2022-09-04T09:05:51.147Z,1.08
2022-09-04T09:09:01.729Z,1.45
2022-09-04T09:11:43.559Z,0.82
2022-09-04T09:14:16.394Z,1.02
2022-09-04T09:17:12.997Z,1.10
2022-09-04T09:19:59.646Z,1.05
2022-09-04T09:22:37.530Z,1.23
2022-09-04T09:25:12.918Z,1.08
2022-09-04T09:28:19.230Z,1.38
2022-09-04T09:31:28.585Z,1.25
2022-09-04T09:34:47.769Z,1.30
2022-09-04T09:38:04.445Z,1.27
2022-09-04T09:40:57.844Z,1.33
2022-09-04T09:43:40.105Z,1.25
2022-09-04T09:46:43.105Z,1.25
2022-09-04T09:49:35.655Z,1.80
2022-09-04T09:52:33.351Z,1.20
2022-09-04T09:55:21.776Z,1.30
2022-09-04T09:58:23.270Z,0.75
2022-09-04T10:01:14.449Z,1.02
2022-09-04T10:04:10.188Z,0.73
2022-09-04T10:06:42.762Z,1.05
2022-09-04T10:09:23.735Z,1.30
2022-09-04T10:12:05.446Z,0.88
2022-09-04T10:14:59.353Z,0.98
2022-09-04T10:18:40.950Z,1.00
2022-09-04T10:21:50.446Z,1.02
2022-09-04T10:24:57.613Z,1.00
2022-09-04T10:28:02.809Z,1.00
2022-09-04T10:31:03.428Z,1.15
2022-09-04T10:33:55.809Z,1.00
2022-09-04T10:36:45.092Z,1.10
2022-09-04T10:39:47.222Z,1.13
2022-09-04T10:42:31.111Z,1.00
2022-09-04T10:45:17.359Z,1.05
2022-09-04T10:48:08.145Z,0.95
2022-09-04T10:50:37.723Z,0.82
2022-09-04T10:53:25.352Z,1.25
2022-09-04T10:56:19.662Z,1.27
2022-09-04T10:59:08.667Z,1.08
2022-09-04T11:01:47.821Z,0.95
2022-09-04T11:05:07.202Z,0.63
2022-09-04T11:08:13.946Z,1.10
2022-09-04T11:11:07.423Z,0.85
2022-09-04T11:16:45.000Z,0.82
2022-09-04T11:19:34.385Z,0.93
2022-09-04T11:22:29.033Z,1.20
2022-09-04T11:25:45.262Z,0.68
2022-09-04T11:28:44.320Z,0.95
2022-09-04T11:32:00.293Z,0.90
2022-09-04T11:35:32.089Z,0.98
2022-09-04T11:38:19.351Z,1.02
2022-09-04T11:41:35.125Z,0.70
2022-09-04T11:44:35.249Z,1.05
2022-09-04T11:47:41.289Z,0.70
2022-09-04T11:50:56.608Z,0.70
2022-09-04T11:53:29.231Z,0.90
2022-09-04T11:56:35.501Z,0.88
2022-09-04T11:59:26.773Z,0.98
2022-09-04T12:02:16.718Z,0.80
2022-09-04T12:05:24.945Z,0.73
2022-09-04T12:08:49.205Z,1.20
2022-09-04T12:11:45.737Z,1.30
2022-09-04T12:14:47.250Z,1.13
2022-09-04T12:17:15.608Z,1.05
2022-09-04T12:20:04.182Z,0.93
2022-09-04T12:22:54.665Z,1.70
2022-09-04T12:26:01.473Z,0.90
2022-09-04T12:28:50.810Z,0.82
2022-09-04T12:31:51.857Z,0.80
2022-09-04T12:34:43.370Z,0.90
2022-09-04T12:37:43.686Z,0.73
2022-09-04T12:40:31.999Z,1.02
2022-09-04T12:43:20.743Z,0.88
2022-09-04T12:46:14.646Z,1.08
2022-09-04T12:49:04.347Z,1.10
2022-09-04T12:51:45.904Z,1.15
2022-09-04T12:54:25.073Z,1.02
2022-09-04T12:57:36.502Z,0.50
2022-09-04T13:00:12.304Z,0.80
2022-09-04T13:03:14.375Z,0.90
2022-09-04T13:06:04.183Z,0.88
2022-09-04T13:08:53.818Z,1.13
2022-09-04T13:11:54.658Z,0.60
2022-09-04T13:14:37.535Z,0.80
2022-09-04T13:17:28.253Z,0.75
2022-09-04T13:20:22.763Z,0.70
2022-09-04T13:23:14.274Z,0.80
2022-09-04T13:26:09.061Z,0.73
2022-09-04T13:29:16.123Z,0.70
2022-09-04T13:32:25.864Z,0.98
2022-09-04T13:35:26.378Z,0.80
2022-09-04T13:38:30.134Z,0.50
2022-09-04T13:41:36.669Z,0.77
2022-09-04T13:44:50.188Z,0.70
2022-09-04T13:47:33.202Z,1.00
2022-09-04T13:50:33.203Z,1.10
2022-09-04T13:53:16.690Z,0.80
2022-09-04T13:55:57.287Z,0.70
2022-09-04T13:58:44.289Z,0.77
2022-09-04T14:01:21.869Z,0.60
2022-09-04T14:03:55.504Z,0.80
2022-09-04T14:06:25.605Z,0.68
2022-09-04T14:09:04.493Z,1.00
2022-09-04T14:11:38.126Z,0.70
2022-09-04T14:15:07.778Z,0.93
2022-09-04T14:18:00.157Z,0.70
2022-09-04T14:20:34.441Z,0.93
2022-09-04T14:23:16.012Z,1.10
2022-09-04T14:25:56.033Z,1.15
2022-09-04T14:28:40.423Z,1.13
2022-09-04T14:31:33.949Z,0.70
2022-09-04T14:34:50.294Z,0.52
2022-09-04T14:37:59.366Z,0.70
2022-09-04T14:41:11.755Z,0.82
2022-09-04T14:43:59.545Z,0.60
2022-09-04T14:46:51.520Z,0.98
2022-09-04T14:49:25.301Z,0.90
2022-09-04T14:51:56.813Z,0.65
2022-09-04T14:54:29.949Z,0.90
2022-09-04T14:57:11.602Z,0.80
2022-09-04T14:59:56.534Z,0.70
2022-09-04T15:02:40.937Z,0.70
2022-09-04T15:05:31.551Z,1.30
2022-09-04T15:08:02.535Z,1.02
2022-09-04T15:10:47.792Z,0.80
2022-09-04T15:13:29.269Z,0.75
2022-09-04T15:16:16.278Z,0.90
2022-09-04T15:19:07.221Z,1.42
2022-09-04T15:21:49.052Z,0.95
2022-09-04T15:24:40.423Z,2.13
2022-09-04T15:27:20.383Z,0.88
2022-09-04T15:30:02.856Z,1.00
2022-09-04T15:32:39.904Z,0.98
2022-09-04T15:35:15.701Z,1.23
2022-09-04T15:37:48.344Z,0.80
2022-09-04T15:40:29.168Z,0.80
2022-09-04T15:43:15.676Z,0.80
2022-09-04T15:45:57.085Z,0.85
2022-09-04T15:49:00.177Z,0.88
2022-09-04T15:51:47.829Z,0.70
2022-09-04T15:54:28.931Z,0.90
2022-09-04T15:57:20.212Z,0.73
2022-09-04T16:00:14.565Z,11.55
2022-09-04T16:03:25.161Z,8.02
2022-09-04T16:05:58.678Z,2.28
2022-09-04T16:08:45.343Z,1.42
2022-09-04T16:11:55.957Z,1.15
2022-09-04T16:14:30.273Z,4.03
2022-09-04T16:17:07.513Z,1.48
2022-09-04T16:19:36.962Z,1.20
2022-09-04T16:22:43.981Z,0.88
2022-09-04T16:25:29.135Z,0.60
2022-09-04T16:28:12.354Z,0.68
2022-09-04T16:33:33.315Z,0.95
2022-09-04T16:36:09.585Z,1.05
2022-09-04T16:39:03.942Z,0.93
2022-09-04T16:42:12.713Z,1.20
2022-09-04T16:45:11.211Z,1.20
2022-09-04T16:47:45.826Z,1.15
2022-09-04T16:50:33.269Z,0.93
2022-09-04T16:53:40.089Z,0.75
2022-09-04T16:56:37.478Z,4.55
2022-09-04T16:59:46.194Z,35.47
2022-09-04T17:02:36.113Z,43.22
2022-09-04T17:05:35.114Z,35.38
2022-09-04T17:08:07.839Z,11.27
2022-09-04T17:10:47.916Z,3.22
2022-09-04T17:13:15.300Z,1.17
2022-09-04T17:16:20.142Z,4.13
2022-09-04T17:18:53.698Z,13.43
2022-09-04T17:27:58.784Z,5.82
2022-09-04T17:29:00.160Z,2.28
2022-09-04T17:29:11.495Z,1.50
2022-09-04T17:31:29.950Z,1.15
2022-09-04T17:40:44.054Z,1.42
2022-09-04T17:40:50.561Z,1.23
2022-09-04T17:41:44.620Z,1.45
2022-09-04T17:44:10.826Z,1.20
2022-09-04T17:46:45.902Z,1.20
2022-09-04T17:49:21.437Z,1.27
2022-09-04T17:52:08.999Z,1.17
2022-09-04T17:54:49.189Z,1.27
2022-09-04T17:57:55.843Z,1.35
2022-09-04T18:00:30.119Z,1.20
2022-09-04T18:03:26.686Z,1.63
2022-09-04T18:06:03.500Z,1.70
2022-09-04T18:08:39.674Z,1.60
2022-09-04T18:11:31.366Z,1.55
2022-09-04T18:14:15.282Z,1.60
2022-09-04T18:17:31.169Z,1.30
2022-09-04T18:20:44.129Z,1.30
2022-09-04T18:23:48.154Z,1.40
2022-09-04T18:26:41.535Z,1.48
2022-09-04T18:34:12.542Z,1.38
2022-09-04T18:37:13.273Z,1.52
2022-09-04T18:37:25.652Z,1.58
2022-09-04T18:39:08.053Z,1.10
2022-09-04T18:47:44.743Z,1.98
2022-09-04T18:50:43.481Z,1.60
2022-09-04T18:50:51.228Z,1.30
2022-09-04T18:51:31.369Z,1.40
2022-09-04T18:54:03.894Z,1.27
2022-09-04T18:56:42.837Z,1.30
2022-09-04T18:59:18.617Z,1.33
2022-09-04T19:02:01.104Z,1.98
2022-09-04T19:05:01.629Z,2.40
2022-09-04T19:07:54.276Z,1.88
2022-09-04T19:10:29.398Z,2.70
2022-09-04T19:13:25.289Z,1.65
2022-09-04T19:16:10.873Z,2.17
2022-09-04T19:19:01.358Z,2.35
2022-09-04T19:21:36.590Z,2.15
2022-09-04T19:24:21.337Z,2.35
2022-09-04T19:26:56.891Z,1.38
2022-09-04T19:29:27.984Z,2.25
2022-09-04T19:32:08.046Z,1.33
2022-09-04T19:34:45.773Z,1.35
2022-09-04T19:39:00.213Z,1.92
2022-09-04T19:45:57.609Z,1.73
2022-09-04T19:46:16.094Z,1.70
2022-09-04T19:46:43.133Z,1.58
2022-09-04T19:50:46.127Z,1.38
2022-09-04T19:53:31.575Z,1.60
2022-09-04T19:55:35.749Z,1.38
2022-09-04T19:58:20.615Z,1.40
2022-09-04T20:00:55.857Z,1.20
2022-09-04T20:03:33.593Z,1.33
2022-09-04T20:06:38.806Z,1.33
2022-09-04T20:09:33.127Z,1.10
2022-09-04T20:12:14.971Z,1.10
2022-09-04T20:14:54.721Z,1.67
2022-09-04T20:18:04.032Z,1.70
2022-09-04T20:20:56.432Z,1.30
2022-09-04T20:23:53.068Z,1.30
2022-09-04T20:26:32.319Z,1.48
2022-09-04T20:29:19.469Z,1.50
2022-09-04T20:32:32.087Z,1.20
2022-09-04T20:35:14.617Z,1.45
2022-09-04T20:37:49.064Z,1.10
2022-09-04T20:40:36.527Z,1.23
2022-09-04T20:43:03.238Z,1.00
2022-09-04T20:52:46.367Z,1.55
2022-09-04T20:52:49.774Z,1.70
2022-09-04T20:53:00.036Z,1.45
2022-09-04T20:55:12.791Z,1.60
2022-09-04T21:03:05.443Z,1.80
2022-09-04T21:03:18.060Z,1.27
2022-09-04T21:04:43.252Z,1.38
2022-09-04T21:07:34.581Z,1.27
2022-09-04T21:10:46.967Z,1.95
2022-09-04T21:13:56.457Z,1.20
2022-09-04T21:16:51.390Z,1.35
2022-09-04T21:19:30.547Z,1.30
2022-09-04T21:22:33.608Z,1.20
2022-09-04T21:25:31.666Z,1.33
2022-09-04T21:28:36.093Z,1.30
2022-09-04T21:31:49.525Z,1.42
2022-09-04T21:34:59.966Z,1.60
2022-09-04T21:38:08.950Z,1.67
2022-09-04T21:40:49.792Z,1.67
2022-09-04T21:43:35.459Z,1.52
2022-09-04T21:46:31.680Z,1.48
2022-09-04T21:49:26.880Z,1.58
2022-09-04T21:52:28.084Z,1.30
2022-09-04T21:57:45.818Z,1.15
2022-09-04T22:02:42.249Z,1.17
2022-09-04T22:02:44.807Z,1.50
2022-09-04T22:05:48.091Z,1.65
2022-09-04T22:13:32.370Z,1.45
2022-09-04T22:13:39.853Z,1.48
2022-09-04T22:14:55.281Z,1.70
2022-09-04T22:17:45.000Z,1.67
2022-09-04T22:20:49.739Z,1.80
2022-09-04T22:24:09.245Z,1.80
2022-09-04T22:27:12.437Z,1.42
2022-09-04T22:30:05.826Z,1.45
2022-09-04T22:32:59.346Z,2.03
2022-09-04T22:38:30.282Z,1.27
2022-09-04T22:41:38.367Z,1.15
2022-09-04T22:44:39.065Z,1.70
2022-09-04T22:47:31.303Z,2.03
2022-09-04T22:50:48.767Z,1.30
2022-09-04T22:54:00.183Z,1.73
2022-09-04T22:56:54.230Z,1.38
2022-09-04T22:59:46.865Z,2.72
2022-09-04T23:02:19.597Z,1.80
2022-09-04T23:05:23.165Z,1.92
2022-09-04T23:13:43.117Z,1.33
2022-09-04T23:13:57.990Z,2.17
2022-09-04T23:14:42.256Z,2.03
2022-09-04T23:17:52.825Z,1.40
2022-09-04T23:26:35.159Z,1.63
2022-09-04T23:26:44.301Z,1.60
2022-09-04T23:27:41.190Z,1.85
2022-09-04T23:30:25.249Z,1.50
2022-09-04T23:33:27.808Z,1.40
2022-09-04T23:36:02.622Z,1.45
2022-09-04T23:39:22.035Z,1.67
2022-09-04T23:42:46.514Z,1.80
2022-09-04T23:46:01.760Z,1.83
2022-09-04T23:48:37.285Z,2.22
2022-09-04T23:51:30.661Z,1.88
2022-09-04T23:54:44.154Z,2.42
2022-09-04T23:57:26.934Z,1.55
